Time;durP1;ratioP1;P1;durP2;ratioP2;P2;SDS_P1;SDS_P2;PMS_P1;PMS_P2;Temp;Humidity;BMP_temperature;BMP_pressure;BME280_temperature;BME280_humidity;BME280_pressure;Samples;Min_cycle;Max_cycle;Signal;HPM_P1;HPM_P2
2021/04/16 04:10:14;;;;;;;1.40;1.40;;;2.90;99.90;;;;;;5986294;23;20277;31
2021/04/16 04:12:40;;;;;;;1.30;1.30;;;2.90;99.90;;;;;;4880124;29;20296;-77
2021/04/16 04:15:09;;;;;;;1.30;1.30;;;3.10;99.90;;;;;;4882133;29;20211;-77
2021/04/16 04:17:37;;;;;;;1.23;1.23;;;3.10;99.90;;;;;;4882326;29;20227;-76
2021/04/16 04:20:07;;;;;;;1.20;1.20;;;3.20;99.90;;;;;;4881586;29;20224;-76
2021/04/16 04:22:34;;;;;;;1.20;1.20;;;3.00;99.90;;;;;;4863192;29;20603;-76
2021/04/16 04:25:01;;;;;;;1.40;1.40;;;3.10;99.90;;;;;;4862993;29;20269;-78
2021/04/16 04:27:29;;;;;;;1.40;1.40;;;2.90;99.90;;;;;;4862986;29;20205;-76
2021/04/16 04:29:56;;;;;;;1.23;1.23;;;3.00;99.90;;;;;;4863114;29;20208;-77
2021/04/16 04:32:22;;;;;;;1.30;1.30;;;3.00;99.90;;;;;;4863311;29;20221;-77
2021/04/16 04:34:50;;;;;;;1.30;1.30;;;3.10;99.90;;;;;;4862807;29;20220;-77
2021/04/16 04:37:18;;;;;;;1.33;1.33;;;3.10;99.90;;;;;;4862766;29;20627;-77
2021/04/16 04:39:45;;;;;;;1.30;1.30;;;3.00;99.90;;;;;;4864962;29;20272;-77
2021/04/16 04:42:12;;;;;;;1.30;1.30;;;3.00;99.90;;;;;;4864441;29;20232;-78
2021/04/16 04:44:39;;;;;;;1.47;1.47;;;3.00;99.90;;;;;;4863893;29;20265;-76
2021/04/16 04:47:08;;;;;;;1.20;1.20;;;2.90;99.90;;;;;;4864203;29;20702;-77
2021/04/16 04:49:35;;;;;;;1.60;1.60;;;3.00;99.90;;;;;;4863959;29;20213;-77
2021/04/16 04:52:11;;;;;;;1.07;1.07;;;2.90;99.90;;;;;;4863878;29;20236;-78
2021/04/16 04:54:39;;;;;;;1.40;1.40;;;3.00;99.90;;;;;;4862399;29;20668;-80
2021/04/16 04:57:07;;;;;;;1.23;1.23;;;2.90;99.90;;;;;;4862364;29;20241;-78
2021/04/16 04:59:34;;;;;;;1.20;1.20;;;3.00;99.90;;;;;;4864183;29;20731;-78
2021/04/16 05:02:02;;;;;;;1.33;1.33;;;3.00;99.90;;;;;;4863571;29;20224;-79
2021/04/16 05:04:29;;;;;;;1.40;1.40;;;2.80;99.90;;;;;;4861558;29;20208;-79
2021/04/16 05:06:55;;;;;;;1.50;1.50;;;2.80;99.90;;;;;;4861617;29;20256;-78
2021/04/16 05:09:22;;;;;;;1.30;1.30;;;2.80;99.90;;;;;;4862988;29;20213;-79
2021/04/16 05:11:49;;;;;;;1.20;1.20;;;3.00;99.90;;;;;;4863482;29;20244;-77
2021/04/16 05:14:17;;;;;;;1.33;1.33;;;3.00;99.90;;;;;;4864511;29;20201;-79
2021/04/16 05:16:44;;;;;;;1.30;1.30;;;2.90;99.90;;;;;;4863575;29;20674;-78
2021/04/16 05:19:12;;;;;;;1.50;1.50;;;3.00;99.90;;;;;;4862893;29;20647;-80
2021/04/16 05:21:39;;;;;;;1.30;1.30;;;2.80;99.90;;;;;;4863987;29;20229;-79
2021/04/16 05:24:07;;;;;;;1.20;1.20;;;2.80;99.90;;;;;;4864275;29;20229;-79
2021/04/16 05:26:35;;;;;;;1.47;1.47;;;2.90;99.90;;;;;;4862832;29;20209;-77
2021/04/16 05:29:02;;;;;;;1.53;1.53;;;3.00;99.90;;;;;;4863220;29;20216;-79
2021/04/16 05:31:29;;;;;;;1.30;1.30;;;3.00;99.90;;;;;;4863045;29;20229;-78
2021/04/16 05:33:57;;;;;;;1.20;1.20;;;3.10;99.90;;;;;;4862526;29;20205;-77
2021/04/16 05:36:25;;;;;;;1.20;1.20;;;2.90;99.90;;;;;;4862303;29;20281;-79
2021/04/16 05:38:52;;;;;;;1.30;1.30;;;3.00;99.90;;;;;;4863016;29;20272;-79
2021/04/16 05:41:19;;;;;;;1.10;1.10;;;3.00;99.90;;;;;;4862480;29;20714;-79
2021/04/16 05:43:46;;;;;;;1.30;1.30;;;3.00;99.90;;;;;;4862817;29;20224;-79
2021/04/16 05:46:13;;;;;;;1.20;1.20;;;3.10;99.90;;;;;;4862729;29;20213;-79
2021/04/16 05:48:41;;;;;;;1.30;1.30;;;3.20;99.90;;;;;;4862486;29;20265;-78
2021/04/16 05:51:08;;;;;;;1.27;1.27;;;3.30;99.90;;;;;;4862651;29;20306;-79
2021/04/16 05:53:36;;;;;;;1.40;1.40;;;3.10;99.90;;;;;;4862526;29;20254;-79
2021/04/16 05:56:05;;;;;;;1.37;1.37;;;3.30;99.90;;;;;;4862409;29;20670;-79
2021/04/16 05:58:32;;;;;;;1.50;1.50;;;3.30;99.90;;;;;;4862637;29;20217;-78
2021/04/16 06:00:59;;;;;;;1.40;1.40;;;3.30;99.90;;;;;;4862864;29;20280;-79
2021/04/16 06:03:30;;;;;;;1.20;1.20;;;3.20;99.90;;;;;;4862261;29;20221;-78
2021/04/16 06:05:58;;;;;;;1.53;1.53;;;3.20;99.90;;;;;;4862794;29;20307;-79
2021/04/16 06:08:25;;;;;;;1.20;1.20;;;3.30;99.90;;;;;;4862593;29;20299;-79
2021/04/16 06:10:56;;;;;;;1.20;1.20;;;3.20;99.90;;;;;;4862946;29;20236;-79
2021/04/16 06:13:23;;;;;;;1.20;1.20;;;3.20;99.90;;;;;;4862248;29;20205;-78
2021/04/16 06:15:51;;;;;;;1.20;1.20;;;3.20;99.90;;;;;;4861913;29;20277;-79
2021/04/16 06:18:18;;;;;;;1.37;1.37;;;3.20;99.90;;;;;;4862715;29;20209;-79
2021/04/16 06:20:45;;;;;;;1.10;1.10;;;3.20;99.90;;;;;;4863367;29;20257;-78
2021/04/16 06:23:12;;;;;;;1.20;1.20;;;3.30;99.90;;;;;;4863060;29;20296;-79
2021/04/16 06:25:39;;;;;;;1.40;1.40;;;3.40;99.90;;;;;;4863045;29;20496;-79
2021/04/16 06:28:08;;;;;;;1.20;1.20;;;3.40;99.90;;;;;;4862458;29;20667;-79
2021/04/16 06:30:35;;;;;;;1.10;1.10;;;3.40;99.90;;;;;;4862066;29;20285;-78
2021/04/16 06:33:06;;;;;;;1.53;1.53;;;3.60;99.90;;;;;;4862177;29;20211;-77
2021/04/16 06:35:35;;;;;;;1.10;1.10;;;3.60;99.90;;;;;;4863035;29;20618;-79
2021/04/16 06:38:03;;;;;;;1.43;1.43;;;3.60;99.90;;;;;;4863079;29;20310;-78
2021/04/16 06:40:30;;;;;;;1.30;1.30;;;3.40;99.90;;;;;;4862631;29;20255;-78
2021/04/16 06:42:58;;;;;;;1.27;1.27;;;3.60;99.90;;;;;;4862629;29;20704;-80
2021/04/16 06:45:29;;;;;;;1.57;1.57;;;3.60;99.90;;;;;;4863082;29;20723;-80
2021/04/16 06:47:59;;;;;;;1.20;1.20;;;3.60;99.90;;;;;;4865643;29;20209;-79
2021/04/16 06:50:32;;;;;;;1.40;1.40;;;3.70;99.90;;;;;;4867501;29;20209;-80
2021/04/16 06:53:04;;;;;;;1.40;1.40;;;3.60;99.90;;;;;;4865901;29;20257;-80
2021/04/16 06:55:35;;;;;;;1.30;1.30;;;3.40;99.90;;;;;;4863594;29;20920;-80
2021/04/16 06:58:06;;;;;;;1.30;1.30;;;3.60;99.90;;;;;;4862855;29;20215;-79
2021/04/16 07:00:42;;;;;;;1.10;1.10;;;3.50;99.90;;;;;;4862632;29;20705;-79
2021/04/16 07:03:16;;;;;;;1.40;1.40;;;3.50;99.90;;;;;;4862406;29;20236;-79
2021/04/16 07:05:48;;;;;;;1.50;1.50;;;3.60;99.90;;;;;;4862606;29;20205;-79
2021/04/16 07:08:24;;;;;;;1.27;1.27;;;3.50;99.90;;;;;;4862851;29;20265;-79
2021/04/16 07:10:53;;;;;;;1.30;1.30;;;3.50;99.90;;;;;;4861875;29;20296;-79
2021/04/16 07:13:29;;;;;;;1.10;1.10;;;3.50;99.90;;;;;;4863214;29;20626;-79
2021/04/16 07:15:58;;;;;;;1.40;1.40;;;3.60;99.90;;;;;;4862526;29;20216;-80
2021/04/16 07:18:29;;;;;;;1.60;1.60;;;3.60;99.90;;;;;;4862259;29;20208;-78
2021/04/16 07:20:56;;;;;;;1.30;1.30;;;3.60;99.90;;;;;;4862333;29;20233;-80
2021/04/16 07:23:24;;;;;;;1.20;1.20;;;3.70;99.90;;;;;;4861520;29;20713;-80
2021/04/16 07:26:06;;;;;;;1.50;1.50;;;3.60;99.90;;;;;;4861322;29;20755;-80
2021/04/16 07:28:44;;;;;;;1.30;1.30;;;3.70;99.90;;;;;;4861152;29;20216;-79
2021/04/16 07:31:41;;;;;;;1.40;1.40;;;3.80;99.90;;;;;;4861666;29;20225;-80
2021/04/16 07:34:32;;;;;;;1.20;1.20;;;3.70;99.90;;;;;;4861939;29;20204;-79
2021/04/16 07:37:10;;;;;;;1.20;1.20;;;3.80;99.90;;;;;;4861383;29;20758;-78
2021/04/16 07:39:44;;;;;;;1.40;1.40;;;3.80;99.90;;;;;;4861710;29;20700;-80
2021/04/16 07:42:22;;;;;;;1.20;1.20;;;3.90;99.90;;;;;;4861326;29;20236;-80
2021/04/16 07:45:07;;;;;;;1.10;1.10;;;3.90;99.90;;;;;;4861518;29;20236;-80
2021/04/16 07:47:36;;;;;;;1.50;1.50;;;3.90;99.90;;;;;;4861790;29;20578;-79
2021/04/16 07:50:07;;;;;;;1.50;1.50;;;3.80;99.90;;;;;;4861943;29;20841;-79
2021/04/16 07:52:36;;;;;;;1.40;1.40;;;3.90;99.90;;;;;;4862005;29;20327;-80
2021/04/16 07:55:08;;;;;;;1.30;1.30;;;3.90;99.90;;;;;;4861472;29;20209;-80
2021/04/16 07:57:37;;;;;;;1.27;1.27;;;4.10;99.90;;;;;;4862087;29;20673;-80
2021/04/16 08:00:08;;;;;;;1.43;1.43;;;3.90;99.90;;;;;;4861526;29;20208;-80
2021/04/16 08:02:43;;;;;;;1.30;1.30;;;4.00;99.90;;;;;;4861551;29;20217;-79
2021/04/16 08:05:15;;;;;;;1.37;1.37;;;3.90;99.90;;;;;;4862455;29;20632;-79
2021/04/16 08:07:42;;;;;;;1.30;1.30;;;4.00;99.90;;;;;;4862458;29;20219;-79
2021/04/16 08:10:17;;;;;;;1.23;1.23;;;4.10;99.90;;;;;;4861548;29;20245;-78
2021/04/16 08:12:44;;;;;;;1.13;1.13;;;4.10;99.90;;;;;;4859714;29;20211;-79
2021/04/16 08:15:19;;;;;;;1.07;1.07;;;4.20;99.90;;;;;;4859093;29;20209;-79
2021/04/16 08:17:48;;;;;;;1.30;1.30;;;4.20;99.90;;;;;;4864250;29;20208;-79
2021/04/16 08:20:25;;;;;;;1.33;1.33;;;4.10;99.90;;;;;;4861605;29;20231;-79
2021/04/16 08:23:12;;;;;;;1.23;1.23;;;4.10;99.90;;;;;;4860466;29;20311;-78
2021/04/16 08:25:44;;;;;;;1.20;1.20;;;4.10;99.90;;;;;;4859835;29;20481;-79
2021/04/16 08:28:15;;;;;;;1.10;1.10;;;4.00;99.90;;;;;;4860136;29;20204;-78
2021/04/16 08:30:51;;;;;;;1.57;1.57;;;3.90;99.90;;;;;;4864999;29;20487;-76
2021/04/16 08:33:25;;;;;;;1.10;1.10;;;3.80;99.90;;;;;;4866734;29;20215;-77
2021/04/16 08:36:08;;;;;;;1.40;1.40;;;3.80;99.90;;;;;;4866519;29;20208;-76
2021/04/16 08:38:41;;;;;;;1.30;1.30;;;3.90;99.90;;;;;;4867599;29;20212;-77
2021/04/16 08:41:11;;;;;;;1.53;1.53;;;3.90;99.90;;;;;;4869355;29;20233;-77
2021/04/16 08:43:42;;;;;;;1.30;1.30;;;3.90;99.90;;;;;;4865914;29;20556;-79
2021/04/16 08:46:32;;;;;;;1.40;1.40;;;3.80;99.90;;;;;;4863140;29;20647;-78
2021/04/16 08:49:10;;;;;;;1.10;1.10;;;3.80;99.90;;;;;;4863075;29;20237;-78
2021/04/16 08:51:41;;;;;;;1.20;1.20;;;3.80;99.90;;;;;;4863068;29;20654;-79
2021/04/16 08:54:16;;;;;;;1.40;1.40;;;3.90;99.90;;;;;;4863019;29;20208;-79
2021/04/16 08:56:53;;;;;;;1.30;1.30;;;4.10;99.90;;;;;;4862663;29;20747;-78
2021/04/16 08:59:26;;;;;;;1.10;1.10;;;4.10;99.90;;;;;;4863266;29;20216;-78
2021/04/16 09:02:03;;;;;;;1.10;1.10;;;4.30;99.90;;;;;;4862741;29;20236;-79
2021/04/16 09:04:50;;;;;;;1.27;1.27;;;4.20;99.90;;;;;;4862250;29;20721;-79
2021/04/16 09:07:40;;;;;;;1.17;1.17;;;4.20;99.90;;;;;;4862756;29;20298;-79
2021/04/16 09:10:28;;;;;;;1.20;1.20;;;4.40;99.90;;;;;;4862738;29;20213;-78
2021/04/16 09:12:56;;;;;;;1.20;1.20;;;4.30;99.90;;;;;;4862786;29;20747;-79
2021/04/16 09:15:45;;;;;;;1.40;1.40;;;4.30;99.90;;;;;;4862694;29;20228;-79
2021/04/16 09:18:24;;;;;;;1.10;1.10;;;4.30;99.90;;;;;;4860073;29;20679;-78
2021/04/16 09:21:13;;;;;;;1.40;1.40;;;4.40;99.90;;;;;;4862888;29;20228;-79
2021/04/16 09:24:03;;;;;;;1.43;1.43;;;4.50;99.90;;;;;;4863292;29;20682;-78
2021/04/16 09:26:57;;;;;;;1.10;1.10;;;4.70;99.90;;;;;;4862880;29;20261;-80
2021/04/16 09:29:44;;;;;;;1.30;1.30;;;4.70;99.90;;;;;;4862788;29;20269;-78
2021/04/16 09:32:42;;;;;;;1.20;1.20;;;4.70;99.90;;;;;;4863303;29;20224;-79
2021/04/16 09:35:13;;;;;;;1.20;1.20;;;4.80;99.90;;;;;;4862862;29;20212;-79
2021/04/16 09:37:42;;;;;;;1.20;1.20;;;5.00;99.90;;;;;;4863352;29;20280;-79
2021/04/16 09:40:31;;;;;;;1.30;1.30;;;4.70;99.90;;;;;;4862843;29;20220;-79
2021/04/16 09:42:59;;;;;;;1.20;1.20;;;4.70;99.90;;;;;;4863313;29;20196;-80
2021/04/16 09:45:45;;;;;;;1.10;1.10;;;4.80;99.90;;;;;;4862617;29;20209;-78
2021/04/16 09:48:25;;;;;;;1.10;1.10;;;4.90;99.90;;;;;;4862824;29;20263;-79
2021/04/16 09:51:18;;;;;;;1.30;1.30;;;4.80;99.90;;;;;;4862222;29;20629;-79
2021/04/16 09:54:31;;;;;;;1.30;1.30;;;4.70;99.90;;;;;;4863369;29;20681;-79
2021/04/16 09:57:26;;;;;;;1.20;1.20;;;4.60;99.90;;;;;;4862851;29;20499;-78
2021/04/16 09:59:54;;;;;;;1.13;1.13;;;4.70;99.90;;;;;;4862611;29;20224;-79
2021/04/16 10:02:38;;;;;;;1.37;1.37;;;4.80;99.90;;;;;;4863306;29;20649;-79
2021/04/16 10:05:31;;;;;;;1.10;1.10;;;4.80;99.90;;;;;;4862375;29;20240;-79
2021/04/16 10:08:02;;;;;;;1.20;1.20;;;4.60;99.90;;;;;;4857863;29;20219;-77
2021/04/16 10:10:34;;;;;;;1.10;1.10;;;4.70;99.90;;;;;;4852579;29;20237;-76
2021/04/16 10:13:12;;;;;;;1.20;1.20;;;4.80;99.90;;;;;;4843025;29;20209;-76
2021/04/16 10:15:42;;;;;;;1.30;1.30;;;4.80;99.90;;;;;;4862070;29;20639;-76
2021/04/16 10:18:19;;;;;;;1.10;1.10;;;4.90;99.90;;;;;;4863786;29;20204;-76
2021/04/16 10:21:04;;;;;;;1.27;1.27;;;4.90;99.90;;;;;;4860063;29;20300;-77
2021/04/16 10:23:36;;;;;;;1.20;1.20;;;5.00;99.90;;;;;;4861121;29;20236;-76
2021/04/16 12:39:32;;;;;;;1.17;1.17;;;7.20;99.90;;;;;;4866901;29;20268;-77
2021/04/16 12:41:59;;;;;;;1.10;1.10;;;7.20;99.90;;;;;;4866324;29;20651;-78
2021/04/16 12:44:36;;;;;;;1.20;1.20;;;7.30;99.90;;;;;;4867130;29;20293;-78
2021/04/16 12:47:06;;;;;;;1.00;1.00;;;7.50;99.90;;;;;;4865218;29;20215;-78
2021/04/16 12:49:33;;;;;;;1.20;1.20;;;7.40;99.90;;;;;;4867327;29;20219;-78
2021/04/16 12:52:02;;;;;;;1.30;1.30;;;7.40;99.90;;;;;;4864824;29;20228;-78
2021/04/16 12:54:29;;;;;;;1.03;1.03;;;7.40;99.90;;;;;;4861637;29;20239;-77
2021/04/16 12:56:56;;;;;;;1.10;1.10;;;7.70;99.90;;;;;;4861542;29;20583;-77
2021/04/16 12:59:24;;;;;;;1.00;1.00;;;8.10;99.90;;;;;;4861660;29;20670;-77
2021/04/16 13:01:54;;;;;;;1.00;1.00;;;8.10;99.90;;;;;;4861566;29;20604;-77
2021/04/16 13:04:24;;;;;;;0.90;0.90;;;8.40;99.90;;;;;;4861550;29;20328;-77
2021/04/16 13:06:53;;;;;;;0.90;0.90;;;8.10;99.90;;;;;;4861477;29;20213;-77
2021/04/16 13:09:20;;;;;;;1.00;1.00;;;8.10;99.90;;;;;;4861969;29;20208;-77
2021/04/16 13:11:48;;;;;;;1.23;1.23;;;8.30;99.90;;;;;;4861633;29;20244;-77
2021/04/16 13:14:15;;;;;;;1.00;1.00;;;8.30;99.90;;;;;;4861659;29;20209;-77
2021/04/16 13:16:42;;;;;;;0.90;0.90;;;8.30;99.90;;;;;;4863515;29;20285;-77
2021/04/16 13:19:22;;;;;;;0.90;0.90;;;8.30;99.90;;;;;;4864139;29;20200;-77
2021/04/16 13:21:50;;;;;;;1.00;1.00;;;8.70;99.90;;;;;;4861574;29;20239;-76
2021/04/16 13:24:16;;;;;;;1.00;1.00;;;9.20;99.90;;;;;;4860587;29;20224;-77
2021/04/16 13:26:43;;;;;;;1.02;1.02;;;9.30;99.90;;;;;;4860974;29;20205;-77
2021/04/16 13:29:10;;;;;;;0.95;0.95;;;9.50;99.90;;;;;;4861950;29;20201;-77
2021/04/16 13:31:38;;;;;;;1.00;1.00;;;9.80;99.90;;;;;;4861731;29;20289;-77
2021/04/16 13:34:05;;;;;;;0.80;0.80;;;9.80;99.90;;;;;;4861914;29;20211;-77
2021/04/16 13:36:34;;;;;;;0.70;0.70;;;10.10;99.90;;;;;;4861190;29;20209;-77
2021/04/16 13:39:03;;;;;;;1.00;1.00;;;10.20;99.90;;;;;;4860867;29;20769;-77
2021/04/16 13:41:34;;;;;;;0.98;0.98;;;9.90;99.90;;;;;;4860937;29;20236;-77
2021/04/16 13:44:03;;;;;;;0.90;0.90;;;9.90;99.90;;;;;;4860860;29;20235;-77
2021/04/16 13:46:32;;;;;;;0.90;0.90;;;10.30;99.90;;;;;;4861290;29;20204;-77
2021/04/16 13:49:01;;;;;;;0.90;0.90;;;10.10;99.90;;;;;;4862925;29;20209;-78
2021/04/16 13:51:28;;;;;;;1.00;1.00;;;10.00;99.90;;;;;;4862383;29;20710;-77
2021/04/16 13:53:56;;;;;;;0.85;0.85;;;9.90;99.90;;;;;;4864732;29;20201;-77
2021/04/16 13:56:23;;;;;;;1.00;1.00;;;9.70;99.90;;;;;;4862951;29;20240;-77
2021/04/16 13:58:50;;;;;;;0.80;0.80;;;9.70;99.90;;;;;;4864593;29;20231;-77
2021/04/16 14:01:17;;;;;;;0.90;0.90;;;9.60;99.90;;;;;;4864823;29;20225;-78
2021/04/16 14:03:46;;;;;;;0.90;0.90;;;9.60;99.90;;;;;;4863364;29;20217;-78
2021/04/16 14:06:15;;;;;;;0.98;0.98;;;9.50;99.90;;;;;;4864926;29;20284;-77
2021/04/16 14:08:50;;;;;;;0.88;0.88;;;9.50;99.90;;;;;;4859791;29;20747;-77
2021/04/16 14:11:19;;;;;;;0.90;0.90;;;9.70;99.90;;;;;;4860729;29;20797;-78
2021/04/16 14:13:46;;;;;;;0.98;0.98;;;9.80;99.90;;;;;;4865576;29;20216;-78
2021/04/16 14:16:24;;;;;;;0.90;0.90;;;9.80;99.90;;;;;;4868791;29;20215;-78
2021/04/16 14:18:52;;;;;;;0.98;0.98;;;10.20;99.90;;;;;;4867132;29;20265;-78
2021/04/16 14:21:20;;;;;;;0.80;0.80;;;10.50;99.90;;;;;;4865055;29;20654;-79
2021/04/16 14:23:48;;;;;;;0.70;0.70;;;10.50;99.90;;;;;;4864388;29;20225;-79
2021/04/16 14:26:15;;;;;;;0.82;0.82;;;10.20;99.90;;;;;;4862690;29;20208;-78
2021/04/16 14:28:43;;;;;;;1.10;1.10;;;10.20;99.90;;;;;;4863363;29;20645;-78
2021/04/16 14:31:10;;;;;;;0.90;0.90;;;9.80;99.90;;;;;;4862349;29;20277;-77
2021/04/16 14:33:39;;;;;;;0.88;0.88;;;9.50;99.90;;;;;;4862214;29;20232;-78
2021/04/16 14:36:26;;;;;;;0.85;0.85;;;9.70;99.90;;;;;;4853376;29;20678;-78
2021/04/16 14:38:53;;;;;;;0.80;0.80;;;9.50;99.90;;;;;;4862478;29;20209;-77
2021/04/16 14:41:26;;;;;;;0.90;0.90;;;9.50;99.90;;;;;;4862415;29;20321;-78
2021/04/16 14:43:54;;;;;;;0.95;0.95;;;9.30;99.90;;;;;;4860357;29;20568;-79
2021/04/16 14:46:21;;;;;;;0.90;0.90;;;9.40;99.90;;;;;;4864470;29;20212;-79
2021/04/16 14:48:48;;;;;;;0.90;0.90;;;9.50;99.90;;;;;;4863636;29;20284;-79
2021/04/16 14:51:15;;;;;;;0.80;0.80;;;9.80;99.90;;;;;;4863412;29;20284;-80
2021/04/16 14:53:45;;;;;;;0.90;0.90;;;9.80;99.90;;;;;;4864202;29;20551;-79
2021/04/16 14:56:15;;;;;;;0.90;0.90;;;10.20;99.90;;;;;;4863381;29;20671;-79
2021/04/16 14:58:44;;;;;;;0.80;0.80;;;;;;;;;;4865640;29;20674;-77
2021/04/16 15:01:13;;;;;;;0.80;0.80;;;11.50;99.90;;;;;;4864353;29;20760;-80
2021/04/16 15:03:40;;;;;;;0.80;0.80;;;11.80;99.90;;;;;;4860536;29;20197;-78
2021/04/16 15:06:16;;;;;;;0.70;0.70;;;11.70;99.90;;;;;;4863357;29;20197;-77
2021/04/16 15:08:47;;;;;;;0.80;0.80;;;11.40;99.90;;;;;;4861367;29;20200;-78
2021/04/16 15:11:17;;;;;;;0.70;0.70;;;11.80;99.90;;;;;;4864744;29;20387;-78
2021/04/16 15:13:44;;;;;;;0.73;0.73;;;11.80;99.60;;;;;;4862035;29;20280;-78
2021/04/16 15:16:17;;;;;;;0.70;0.70;;;11.10;99.10;;;;;;4865721;29;20288;-77
2021/04/16 15:18:45;;;;;;;0.80;0.80;;;11.60;98.80;;;;;;4865433;29;20735;-77
2021/04/16 15:21:14;;;;;;;0.70;0.70;;;11.70;97.50;;;;;;4864937;29;20221;-79
2021/04/16 15:23:42;;;;;;;0.80;0.80;;;11.40;97.40;;;;;;4863257;29;20604;-79
2021/04/16 15:26:09;;;;;;;0.80;0.80;;;11.30;98.20;;;;;;4862757;29;20268;-78
2021/04/16 15:28:43;;;;;;;0.90;0.90;;;11.20;99.90;;;;;;4863950;29;20224;-79
2021/04/16 15:31:15;;;;;;;0.80;0.80;;;11.20;96.90;;;;;;4860498;29;20257;-78
2021/04/16 15:47:23;;;;;;;0.80;0.80;;;11.40;96.20;;;;;;4863363;29;20209;-82
2021/04/16 15:49:50;;;;;;;0.90;0.90;;;11.50;93.50;;;;;;4861848;29;20280;-78
2021/04/16 15:52:17;;;;;;;0.80;0.80;;;11.40;93.60;;;;;;4860422;29;20228;-80
2021/04/16 15:54:44;;;;;;;0.80;0.80;;;11.10;92.80;;;;;;4860830;29;20205;-83
2021/04/16 15:57:19;;;;;;;0.90;0.90;;;10.90;93.30;;;;;;4867347;29;20235;-80
2021/04/16 15:59:46;;;;;;;0.93;0.93;;;10.60;92.90;;;;;;4865549;29;20220;-82
2021/04/16 16:02:16;;;;;;;0.80;0.80;;;10.40;93.90;;;;;;4865177;29;20228;-83
2021/04/16 16:04:45;;;;;;;0.90;0.90;;;10.10;94.50;;;;;;4863486;29;20233;-77
2021/04/16 16:07:13;;;;;;;0.70;0.70;;;10.10;94.80;;;;;;4861381;29;20734;-79
2021/04/16 16:09:40;;;;;;;0.90;0.90;;;10.00;94.80;;;;;;4860011;29;20212;-77
2021/04/16 16:12:14;;;;;;;0.80;0.80;;;9.90;95.10;;;;;;4859448;29;20244;-77
2021/04/16 16:14:47;;;;;;;0.80;0.80;;;9.80;96.10;;;;;;4860374;29;20208;-78
2021/04/16 16:17:17;;;;;;;0.90;0.90;;;9.80;95.00;;;;;;4860926;29;20189;-78
2021/04/16 16:19:45;;;;;;;0.80;0.80;;;9.60;94.50;;;;;;4859821;29;20743;-78
2021/04/16 16:22:12;;;;;;;1.08;1.08;;;9.50;94.80;;;;;;4859261;29;20252;-78
2021/04/16 16:24:39;;;;;;;1.08;1.08;;;9.50;95.40;;;;;;4861865;29;20315;-78
2021/04/16 16:27:09;;;;;;;0.80;0.80;;;9.50;94.30;;;;;;4858667;29;20212;-77
2021/04/16 16:29:38;;;;;;;0.90;0.90;;;9.40;94.20;;;;;;4860013;29;20208;-76
2021/04/16 16:32:08;;;;;;;0.90;0.90;;;9.40;94.00;;;;;;4859003;29;20714;-77
2021/04/16 16:34:36;;;;;;;0.80;0.80;;;9.40;93.50;;;;;;4849110;29;20672;-77
2021/04/16 16:37:04;;;;;;;0.90;0.90;;;9.50;93.60;;;;;;4858506;29;20501;-77
2021/04/16 16:39:37;;;;;;;0.90;0.90;;;9.50;94.00;;;;;;4858467;29;20311;-77
2021/04/16 16:42:05;;;;;;;0.80;0.80;;;9.60;93.40;;;;;;4858364;29;20232;-76
2021/04/16 16:44:36;;;;;;;0.90;0.90;;;9.60;93.30;;;;;;4858254;29;20264;-76
2021/04/16 16:47:05;;;;;;;0.80;0.80;;;9.60;92.40;;;;;;4858214;29;20201;-76
2021/04/16 16:49:34;;;;;;;0.90;0.90;;;9.60;92.20;;;;;;4858012;29;20307;-78
2021/04/16 16:52:01;;;;;;;0.85;0.85;;;9.50;91.90;;;;;;4857010;29;20520;-76
2021/04/16 16:54:29;;;;;;;0.80;0.80;;;9.50;92.40;;;;;;4859401;29;20723;-79
2021/04/16 16:56:56;;;;;;;0.85;0.85;;;9.60;92.10;;;;;;4860054;29;20213;-79
2021/04/16 16:59:28;;;;;;;0.90;0.90;;;9.70;92.40;;;;;;4860280;29;20216;-81
2021/04/16 17:01:55;;;;;;;0.90;0.90;;;9.70;92.10;;;;;;4862559;29;20244;-78
2021/04/16 17:04:22;;;;;;;1.00;1.00;;;9.60;92.80;;;;;;4861976;29;20324;-78
2021/04/16 17:06:49;;;;;;;0.80;0.80;;;9.50;92.50;;;;;;4861519;29;20208;-77
2021/04/16 17:09:16;;;;;;;0.90;0.90;;;9.40;93.20;;;;;;4862336;29;20205;-78
2021/04/16 17:11:44;;;;;;;0.70;0.70;;;9.40;93.80;;;;;;4862596;29;20243;-77
2021/04/16 17:14:15;;;;;;;0.70;0.70;;;9.40;93.50;;;;;;4859469;29;20208;-75
2021/04/16 17:16:42;;;;;;;0.80;0.80;;;9.40;93.60;;;;;;4860336;29;20577;-76
2021/04/16 17:19:10;;;;;;;0.88;0.88;;;9.30;94.20;;;;;;4859881;29;20213;-76
2021/04/16 17:21:38;;;;;;;0.90;0.90;;;9.50;94.50;;;;;;4861113;29;20228;-77
2021/04/16 17:24:08;;;;;;;1.00;1.00;;;9.30;95.40;;;;;;4861121;29;20291;-78
2021/04/16 17:26:37;;;;;;;0.80;0.80;;;9.20;95.40;;;;;;4860671;29;20678;-77
2021/04/16 17:29:07;;;;;;;0.80;0.80;;;9.30;95.10;;;;;;4860869;29;20220;-77
2021/04/16 17:31:34;;;;;;;0.82;0.82;;;9.30;95.80;;;;;;4861045;29;20229;-77
2021/04/16 17:34:02;;;;;;;1.05;1.05;;;9.20;94.80;;;;;;4861047;29;20215;-76
2021/04/16 17:36:29;;;;;;;0.98;0.98;;;9.40;95.60;;;;;;4860766;29;20261;-76
2021/04/16 17:39:04;;;;;;;0.70;0.70;;;9.30;94.70;;;;;;4860856;29;20800;-76
2021/04/16 17:41:36;;;;;;;1.05;1.05;;;9.30;95.10;;;;;;4860377;29;20651;-76
2021/04/16 17:44:04;;;;;;;0.77;0.77;;;9.10;95.40;;;;;;4860859;29;20631;-76
2021/04/16 17:46:45;;;;;;;0.90;0.90;;;9.10;94.70;;;;;;4860339;29;20656;-76
2021/04/16 17:49:12;;;;;;;0.80;0.80;;;9.10;95.10;;;;;;4861251;29;20642;-76
2021/04/16 17:51:39;;;;;;;0.80;0.80;;;9.00;94.70;;;;;;4860666;29;20289;-77
2021/04/16 17:54:07;;;;;;;0.80;0.80;;;9.00;94.70;;;;;;4860808;29;20193;-76
2021/04/16 17:56:34;;;;;;;0.80;0.80;;;9.00;95.20;;;;;;4861121;29;20261;-77
2021/04/16 17:59:04;;;;;;;0.80;0.80;;;9.10;95.20;;;;;;4859170;29;20216;-76
2021/04/16 18:01:33;;;;;;;0.85;0.85;;;9.10;95.50;;;;;;4860315;29;20233;-76
2021/04/16 18:04:01;;;;;;;0.90;0.90;;;9.10;95.50;;;;;;4859557;29;20590;-76
2021/04/16 18:06:37;;;;;;;0.80;0.80;;;9.10;95.50;;;;;;4859610;29;20643;-77
2021/04/16 18:09:14;;;;;;;0.63;0.63;;;9.00;95.80;;;;;;4860577;29;20291;-76
2021/04/16 18:11:41;;;;;;;0.90;0.90;;;9.10;95.80;;;;;;4859420;29;20587;-77
2021/04/16 18:14:09;;;;;;;0.80;0.80;;;9.10;95.60;;;;;;4857940;29;20208;-78
2021/04/16 18:16:37;;;;;;;1.00;1.00;;;9.10;95.40;;;;;;4861709;29;20197;-82
2021/04/16 18:19:05;;;;;;;0.85;0.85;;;9.00;95.90;;;;;;4860253;29;20255;-78
2021/04/16 18:21:34;;;;;;;1.00;1.00;;;9.00;96.10;;;;;;4856239;29;20299;-77
2021/04/16 18:24:04;;;;;;;0.90;0.90;;;8.90;97.00;;;;;;4859802;29;20213;-76
2021/04/16 18:26:37;;;;;;;0.82;0.82;;;8.90;97.20;;;;;;4859446;29;20656;-76
2021/04/16 18:29:04;;;;;;;0.90;0.90;;;8.80;97.10;;;;;;4852668;29;20224;-76
2021/04/16 18:31:32;;;;;;;0.80;0.80;;;8.80;97.60;;;;;;4842397;29;20282;-76
2021/04/16 18:34:01;;;;;;;0.93;0.93;;;8.70;97.90;;;;;;4842404;29;20281;-77
2021/04/16 18:36:32;;;;;;;0.80;0.80;;;8.70;98.10;;;;;;4841633;29;20209;-76
2021/04/16 18:39:02;;;;;;;0.70;0.70;;;8.70;98.00;;;;;;4841944;29;20209;-77
2021/04/16 18:41:31;;;;;;;0.90;0.90;;;8.60;97.80;;;;;;4840828;29;20225;-77
2021/04/16 18:44:01;;;;;;;0.90;0.90;;;8.50;98.50;;;;;;4840845;29;20217;-77
2021/04/16 18:46:29;;;;;;;0.82;0.82;;;8.50;98.50;;;;;;4840648;29;20225;-77
2021/04/16 18:48:58;;;;;;;0.70;0.70;;;8.40;99.10;;;;;;4841348;29;20205;-77
2021/04/16 18:51:28;;;;;;;0.90;0.90;;;8.50;98.60;;;;;;4856210;29;20293;-78
2021/04/16 18:53:57;;;;;;;1.00;1.00;;;8.50;98.90;;;;;;4860974;29;20268;-79
2021/04/16 18:56:28;;;;;;;0.90;0.90;;;8.60;99.20;;;;;;4858911;29;20277;-77
2021/04/16 18:58:55;;;;;;;0.98;0.98;;;8.50;99.50;;;;;;4858958;29;20212;-77
2021/04/16 19:01:24;;;;;;;0.93;0.93;;;8.60;99.30;;;;;;4858657;29;20229;-78
2021/04/16 19:03:51;;;;;;;0.90;0.90;;;8.40;99.90;;;;;;4859323;29;20205;-77
2021/04/16 19:06:23;;;;;;;0.80;0.80;;;8.50;99.50;;;;;;4857319;29;20823;-77
2021/04/16 19:08:51;;;;;;;1.05;1.05;;;8.50;99.60;;;;;;4852409;29;20208;-78
2021/04/16 19:11:18;;;;;;;0.93;0.93;;;8.40;99.70;;;;;;4855304;29;20705;-78
2021/04/16 19:13:45;;;;;;;1.00;1.00;;;8.40;99.90;;;;;;4856881;29;20364;-78
2021/04/16 19:16:12;;;;;;;0.85;0.85;;;8.40;99.90;;;;;;4856606;29;20212;-78
2021/04/16 19:18:40;;;;;;;0.90;0.90;;;8.40;99.90;;;;;;4857081;29;20228;-78
2021/04/16 19:21:11;;;;;;;1.00;1.00;;;8.40;99.90;;;;;;4856391;29;20244;-77
2021/04/16 19:23:40;;;;;;;0.80;0.80;;;8.40;99.90;;;;;;4855216;29;20268;-78
2021/04/16 19:26:11;;;;;;;0.77;0.77;;;8.50;99.90;;;;;;4843725;29;20282;-77
2021/04/16 19:28:38;;;;;;;0.80;0.80;;;8.60;99.90;;;;;;4857506;29;20240;-77
2021/04/16 19:31:08;;;;;;;0.80;0.80;;;8.70;99.50;;;;;;4859140;29;20236;-77
2021/04/16 19:33:35;;;;;;;0.90;0.90;;;8.70;99.30;;;;;;4859394;29;20660;-76
2021/04/16 19:36:06;;;;;;;0.90;0.90;;;8.90;99.70;;;;;;4858171;29;20212;-77
2021/04/16 19:38:34;;;;;;;0.70;0.70;;;9.00;99.30;;;;;;4859301;29;20212;-78
2021/04/16 19:41:03;;;;;;;0.80;0.80;;;9.00;98.80;;;;;;4858463;29;20292;-77
2021/04/16 19:43:43;;;;;;;0.88;0.88;;;8.70;99.60;;;;;;4858666;29;20616;-77
2021/04/16 19:46:13;;;;;;;0.80;0.80;;;8.60;99.90;;;;;;4858450;29;20224;-76
2021/04/16 20:16:57;;;;;;;0.90;0.90;;;8.20;99.90;;;;;;4862225;29;20637;-80
2021/04/16 20:19:28;;;;;;;1.10;1.10;;;8.30;99.90;;;;;;4860471;29;20201;-78